Skip Navigation Links Skip Navigation Links

Current Weather

Greater Rockford, Rockford, Ill.

For information only: do not use for flight planning or navigation.
Latest weather
Observation time Sunday, May 31, 2020 7:54 AM CDT
Local time Sunday, May 31, 2020 8:04 AM CDT
Flight conditions Visual Meteorological Conditions
Winds
Wind direction East (90°)
Wind speed 10 mph
Visibility 10 mi.
Sky condition
Ceiling unlimited
Sky clear
Temperature 54°F
Dewpoint 36°F
Altimeter 30.39 in.Hg
Derived measurements
Relative humidity 50%
Density altitude -17 ft.
Sea-level pressure 30.39 in.Hg
Remarks
System requires maintenance.
Automated weather observing station with precipitation discriminator.
METAR KRFD 311254Z 09009KT 10SM CLR 12/02 A3039 RMK AO2 SLP290 T01220022 $

Settings

Location code

InnerDrive.Weather 4.0.6770.0 Release CLR 4.0.30319.42000
Copyright ©2018 Inner Drive Technology. All rights reserved. Portions Copyright ©1986-2018 David Braverman.

Find weather

Site navigation


Skip Navigation Links

Place info

Page info

PayPal - The safer, easier way to pay online!

Return home.

Copyright ©2020 Inner Drive Technology. Purveyors of fine, hand-crafted computer software. Page printed 2020-05-31T13:04:25 UTC.